createdAt,value
2022-09-20T13:25:22.324Z,2.55
2022-09-20T13:28:09.566Z,2.33
2022-09-20T13:30:36.609Z,2.65
2022-09-20T13:33:24.198Z,2.72
2022-09-20T13:35:58.742Z,2.55
2022-09-20T13:38:30.634Z,3.08
2022-09-20T13:41:07.277Z,2.08
2022-09-20T13:43:44.358Z,2.72
2022-09-20T13:46:19.427Z,3.17
2022-09-20T13:48:54.469Z,2.85
2022-09-20T13:51:28.726Z,2.30
2022-09-20T13:54:22.129Z,2.50
2022-09-20T13:56:51.163Z,2.38
2022-09-20T13:59:19.553Z,2.40
2022-09-20T14:01:51.882Z,2.25
2022-09-20T14:04:24.492Z,2.85
2022-09-20T14:06:54.672Z,2.95
2022-09-20T14:09:40.104Z,2.70
2022-09-20T14:12:07.740Z,2.75
2022-09-20T14:14:35.745Z,3.78
2022-09-20T14:17:06.791Z,3.00
2022-09-20T14:19:38.858Z,3.30
2022-09-20T14:22:06.887Z,3.92
2022-09-20T14:24:36.533Z,2.95
2022-09-20T14:27:12.004Z,3.47
2022-09-20T14:29:42.154Z,3.17
2022-09-20T14:32:18.016Z,3.70
2022-09-20T14:35:01.652Z,6.30
2022-09-20T14:37:51.780Z,7.15
2022-09-20T14:40:31.127Z,6.78
2022-09-20T14:43:03.870Z,7.85
2022-09-20T14:45:39.731Z,7.82
2022-09-20T14:48:26.490Z,8.57
2022-09-20T14:51:31.601Z,9.10
2022-09-20T14:54:07.792Z,7.97
2022-09-20T14:56:39.920Z,8.35
2022-09-20T14:59:20.094Z,8.07
2022-09-20T15:02:00.124Z,9.10
2022-09-20T15:04:31.637Z,8.80
2022-09-20T15:07:02.911Z,8.27
2022-09-20T15:09:30.036Z,8.85
2022-09-20T15:12:12.205Z,9.10
2022-09-20T15:14:42.310Z,7.90
2022-09-20T15:17:19.026Z,8.57
2022-09-20T15:19:47.910Z,8.70
2022-09-20T15:22:15.466Z,7.68
2022-09-20T15:24:42.961Z,9.13
2022-09-20T15:27:12.107Z,9.10
2022-09-20T15:29:39.129Z,9.13
2022-09-20T15:32:06.609Z,8.18
2022-09-20T15:34:33.430Z,7.53
2022-09-20T15:37:00.276Z,7.80
2022-09-20T15:39:27.953Z,7.68
2022-09-20T15:41:54.738Z,7.45
2022-09-20T15:44:21.985Z,7.20
2022-09-20T15:46:51.492Z,7.57
2022-09-20T15:49:18.255Z,7.03
2022-09-20T15:51:46.302Z,6.68
2022-09-20T15:54:14.670Z,7.13
2022-09-20T15:56:44.444Z,7.43
2022-09-20T15:59:12.398Z,7.07
2022-09-20T16:01:41.682Z,6.43
2022-09-20T16:04:19.553Z,6.90
2022-09-20T16:06:49.456Z,6.32
2022-09-20T16:09:18.188Z,7.47
2022-09-20T16:11:45.666Z,7.55
2022-09-20T16:14:12.409Z,7.20
2022-09-20T16:16:40.564Z,6.68
2022-09-20T16:19:22.181Z,5.88
2022-09-20T16:21:57.773Z,5.93
2022-09-20T16:24:27.780Z,5.80
2022-09-20T16:26:55.207Z,5.53
2022-09-20T16:29:22.399Z,5.65
2022-09-20T16:31:50.325Z,5.93
2022-09-20T16:34:21.065Z,5.47
2022-09-20T16:36:54.184Z,6.35
2022-09-20T16:39:26.178Z,6.82
2022-09-20T16:41:53.556Z,6.10
2022-09-20T16:44:20.352Z,5.85
2022-09-20T16:46:49.358Z,6.28
2022-09-20T16:49:17.076Z,6.10
2022-09-20T16:51:46.243Z,5.97
2022-09-20T16:54:15.283Z,5.78
2022-09-20T16:56:45.320Z,5.47
2022-09-20T16:59:13.363Z,5.93
2022-09-20T17:01:41.760Z,5.25
2022-09-20T17:04:09.423Z,5.40
2022-09-20T17:06:37.890Z,4.50
2022-09-20T17:09:06.606Z,4.78
2022-09-20T17:11:35.914Z,4.93
2022-09-20T17:14:03.314Z,5.00
2022-09-20T17:16:38.366Z,4.40
2022-09-20T17:19:08.491Z,4.55
2022-09-20T17:21:37.065Z,4.93
2022-09-20T17:24:07.097Z,4.60
2022-09-20T17:26:39.225Z,5.15
2022-09-20T17:29:09.925Z,4.90
2022-09-20T17:31:39.140Z,5.07
2022-09-20T17:34:09.669Z,5.22
2022-09-20T17:36:40.515Z,5.18
2022-09-20T17:39:10.866Z,5.07
2022-09-20T17:41:37.810Z,5.47
2022-09-20T17:44:09.860Z,5.20
2022-09-20T17:46:38.556Z,5.22
2022-09-20T17:49:10.521Z,5.35
2022-09-20T17:51:43.171Z,4.97
2022-09-20T17:54:13.765Z,6.00
2022-09-20T17:56:43.480Z,5.80
2022-09-20T17:59:12.325Z,5.57
2022-09-20T18:01:40.343Z,5.40
2022-09-20T18:04:08.884Z,5.30
2022-09-20T18:06:39.181Z,5.25
2022-09-20T18:09:10.594Z,5.45
2022-09-20T18:11:38.818Z,5.20
2022-09-20T18:16:35.020Z,5.47
2022-09-20T18:19:02.161Z,5.57
2022-09-20T18:21:30.925Z,6.00
2022-09-20T18:23:58.575Z,5.07
2022-09-20T18:26:30.306Z,5.50
2022-09-20T18:29:02.799Z,5.53
2022-09-20T18:31:39.051Z,5.32
2022-09-20T18:34:08.169Z,5.65
2022-09-20T18:36:37.202Z,5.38
2022-09-20T18:39:04.023Z,5.20
2022-09-20T18:41:33.386Z,5.35
2022-09-20T18:44:01.900Z,5.30
2022-09-20T18:46:32.111Z,6.00
2022-09-20T18:49:02.446Z,6.20
2022-09-20T18:51:29.204Z,6.05
2022-09-20T18:53:57.819Z,6.43
2022-09-20T18:56:35.392Z,6.35
2022-09-20T18:59:04.091Z,6.72
2022-09-20T19:02:07.514Z,7.07
2022-09-20T19:04:46.749Z,6.75
2022-09-20T19:07:21.365Z,7.05
2022-09-20T19:10:06.787Z,7.22
2022-09-20T19:12:52.917Z,7.10
2022-09-20T19:15:24.268Z,7.32
2022-09-20T19:18:23.506Z,7.00
2022-09-20T19:21:04.515Z,7.22
2022-09-20T19:23:49.771Z,6.72
2022-09-20T19:26:26.903Z,7.13
2022-09-20T19:29:00.016Z,7.47
2022-09-20T19:31:28.316Z,7.57
2022-09-20T19:33:57.411Z,7.30
2022-09-20T19:36:26.521Z,6.97
2022-09-20T19:39:08.331Z,8.05
2022-09-20T19:41:39.419Z,7.60
2022-09-20T19:44:18.328Z,7.80
2022-09-20T19:47:23.674Z,7.28
2022-09-20T19:49:56.725Z,7.78
2022-09-20T19:52:24.908Z,7.85
2022-09-20T19:57:35.371Z,7.40
2022-09-20T20:00:06.219Z,8.00
2022-09-20T20:02:35.842Z,7.53
2022-09-20T20:05:06.018Z,7.95
2022-09-20T20:07:40.854Z,7.10
2022-09-20T20:10:10.293Z,7.22
2022-09-20T20:12:48.407Z,7.68
2022-09-20T20:15:27.897Z,7.78
2022-09-20T20:18:16.788Z,7.57
2022-09-20T20:20:50.139Z,8.15
2022-09-20T20:23:35.778Z,8.50
2022-09-20T20:26:06.055Z,7.38
2022-09-20T20:28:32.963Z,7.65
2022-09-20T20:31:03.323Z,7.00
2022-09-20T20:33:32.923Z,7.40
2022-09-20T20:36:01.468Z,7.60
2022-09-20T20:38:30.069Z,8.30
2022-09-20T20:41:05.640Z,8.13
2022-09-20T20:43:35.692Z,8.07
2022-09-20T20:46:06.960Z,7.85
2022-09-20T20:48:34.728Z,8.10
2022-09-20T20:51:05.681Z,8.50
2022-09-20T20:53:34.630Z,8.57
2022-09-20T20:56:13.726Z,8.07
2022-09-20T20:58:42.503Z,8.38
2022-09-20T21:01:21.097Z,8.43
2022-09-20T21:03:53.223Z,8.25
2022-09-20T21:06:21.907Z,8.40
2022-09-20T21:08:49.792Z,7.70
2022-09-20T21:11:27.426Z,8.88
2022-09-20T21:13:57.081Z,8.60
2022-09-20T21:16:26.552Z,8.30
2022-09-20T21:18:53.318Z,8.50
2022-09-20T21:21:21.477Z,8.30
2022-09-20T21:26:19.952Z,8.75
2022-09-20T21:28:59.100Z,8.80
2022-09-20T21:31:31.706Z,8.38
2022-09-20T21:33:58.478Z,8.50
2022-09-20T21:36:27.838Z,8.00
2022-09-20T21:38:54.896Z,7.90
2022-09-20T21:41:25.325Z,7.82
2022-09-20T21:43:54.973Z,8.48
2022-09-20T21:46:35.334Z,8.93
2022-09-20T21:49:04.913Z,8.73
2022-09-20T21:51:32.785Z,8.60
2022-09-20T21:54:01.575Z,8.55
2022-09-20T21:56:34.009Z,9.38
2022-09-20T21:59:03.832Z,8.50
2022-09-20T22:01:34.613Z,9.00
2022-09-20T22:04:06.466Z,8.45
2022-09-20T22:06:36.409Z,8.05
2022-09-20T22:09:09.233Z,8.68
2022-09-20T22:11:39.062Z,8.30
2022-09-20T22:14:06.869Z,8.70
2022-09-20T22:16:37.090Z,9.18
2022-09-20T22:19:05.028Z,9.82
2022-09-20T22:21:37.438Z,9.65
2022-09-20T22:24:07.783Z,8.77
2022-09-20T22:26:37.320Z,8.88
2022-09-20T22:29:04.866Z,9.35
2022-09-20T22:31:33.852Z,9.23
2022-09-20T22:34:04.022Z,8.68
2022-09-20T22:36:41.141Z,9.32
2022-09-20T22:39:10.036Z,9.65
2022-09-20T22:41:38.712Z,9.20
2022-09-20T22:44:06.202Z,9.32
2022-09-20T22:46:35.243Z,9.65
2022-09-20T22:49:05.024Z,8.77
2022-09-20T22:51:33.511Z,9.18
2022-09-20T22:54:04.459Z,8.75
2022-09-20T22:56:34.688Z,8.85
2022-09-20T22:59:10.524Z,8.45
2022-09-20T23:01:43.568Z,9.20
2022-09-20T23:04:19.112Z,8.98
2022-09-20T23:06:48.000Z,8.40
2022-09-20T23:09:17.764Z,8.85
2022-09-20T23:11:45.946Z,8.85
2022-09-20T23:16:41.588Z,8.55
2022-09-20T23:19:09.637Z,8.30
2022-09-20T23:21:38.421Z,8.35
2022-09-20T23:24:08.065Z,8.25
2022-09-20T23:26:39.550Z,8.07
2022-09-20T23:29:16.574Z,8.00
2022-09-20T23:31:46.472Z,8.10
2022-09-20T23:34:14.983Z,8.65
2022-09-20T23:36:42.527Z,8.48
2022-09-20T23:39:10.233Z,8.20
2022-09-20T23:41:37.662Z,8.52
2022-09-20T23:44:09.864Z,9.63
2022-09-20T23:46:37.547Z,8.93
2022-09-20T23:49:05.113Z,8.80
2022-09-20T23:51:32.771Z,8.52
2022-09-20T23:53:59.719Z,8.60
2022-09-20T23:56:27.502Z,9.10
2022-09-20T23:58:55.078Z,9.00
